Time;durP1;ratioP1;P1;durP2;ratioP2;P2;SDS_P1;SDS_P2;PMS_P1;PMS_P2;Temp;Humidity;BMP_temperature;BMP_pressure;BME280_temperature;BME280_humidity;BME280_pressure;Samples;Min_cycle;Max_cycle;Signal;HPM_P1;HPM_P2
2023/01/31 00:00:49;;;;;;;6.10;1.13;;;3.70;99.90;;;;;;5055748;28;20097;-63
2023/01/31 00:03:14;;;;;;;2.13;0.90;;;3.70;99.90;;;;;;5055385;28;20132;-63
2023/01/31 00:05:40;;;;;;;7.85;0.90;;;3.70;99.90;;;;;;5055623;28;20037;-63
2023/01/31 00:08:05;;;;;;;5.60;0.70;;;3.70;99.90;;;;;;5055502;28;20055;-63
2023/01/31 00:10:31;;;;;;;4.30;0.57;;;3.70;99.90;;;;;;5053891;28;20041;-63
2023/01/31 00:12:57;;;;;;;7.82;0.90;;;3.70;99.90;;;;;;5054954;28;20513;-64
2023/01/31 00:15:22;;;;;;;16.42;1.73;;;3.60;99.90;;;;;;5053873;28;20051;-64
2023/01/31 00:17:48;;;;;;;8.98;1.10;;;3.60;99.90;;;;;;5055317;28;20052;-64
2023/01/31 00:20:14;;;;;;;5.32;1.27;;;3.60;99.90;;;;;;5053773;28;20072;-64
2023/01/31 00:22:40;;;;;;;2.72;0.73;;;3.60;99.90;;;;;;5055250;28;20051;-64
2023/01/31 00:25:06;;;;;;;8.95;1.23;;;3.50;99.90;;;;;;5055138;28;20044;-64
2023/01/31 00:27:32;;;;;;;1.27;0.60;;;3.60;99.90;;;;;;5055177;28;20045;-64
2023/01/31 00:29:57;;;;;;;9.27;1.73;;;3.50;99.90;;;;;;5055073;28;20033;-64
2023/01/31 00:32:25;;;;;;;3.90;1.00;;;3.60;99.90;;;;;;5054964;28;20045;-64
2023/01/31 00:34:52;;;;;;;6.35;1.27;;;3.50;99.90;;;;;;5053397;28;20037;-64
2023/01/31 00:37:18;;;;;;;1.92;0.43;;;3.50;99.90;;;;;;5054774;28;20137;-64
2023/01/31 00:39:43;;;;;;;10.40;1.45;;;3.40;99.90;;;;;;5054952;28;20102;-63
2023/01/31 00:42:09;;;;;;;6.18;1.40;;;3.50;99.90;;;;;;5053575;28;20044;-64
2023/01/31 00:44:34;;;;;;;5.47;1.25;;;3.40;99.90;;;;;;5054636;28;20080;-64
2023/01/31 00:47:00;;;;;;;4.65;0.75;;;3.40;99.90;;;;;;5053169;28;20090;-64
2023/01/31 00:49:26;;;;;;;6.65;1.10;;;3.40;99.90;;;;;;5053385;28;20115;-64
2023/01/31 00:51:51;;;;;;;8.82;0.98;;;3.40;99.90;;;;;;5054705;28;20116;-64
2023/01/31 00:54:17;;;;;;;6.43;1.83;;;3.40;99.90;;;;;;5053074;28;20045;-64
2023/01/31 00:56:43;;;;;;;2.83;0.95;;;3.40;99.90;;;;;;5054559;28;20029;-64
2023/01/31 00:59:09;;;;;;;4.72;0.60;;;3.40;99.90;;;;;;5053052;28;20045;-64
2023/01/31 01:01:36;;;;;;;5.32;1.00;;;3.40;99.90;;;;;;5052962;28;20127;-64
2023/01/31 01:04:02;;;;;;;4.80;1.05;;;3.40;99.90;;;;;;5052926;28;20504;-63
2023/01/31 01:06:28;;;;;;;4.15;0.65;;;3.40;99.90;;;;;;5054396;28;20044;-64
2023/01/31 01:08:55;;;;;;;9.60;1.20;;;3.40;99.90;;;;;;5052843;28;20091;-64
2023/01/31 01:11:23;;;;;;;5.32;1.10;;;3.40;99.90;;;;;;5054262;28;20392;-64
2023/01/31 01:13:49;;;;;;;8.02;1.05;;;3.40;99.90;;;;;;5054070;28;20090;-64
2023/01/31 01:16:36;;;;;;;3.00;0.82;;;4.20;99.90;;;;;;5053982;28;20033;-65
2023/01/31 01:19:07;;;;;;;6.75;0.75;;;3.40;99.90;;;;;;5052937;28;20477;-64
2023/01/31 01:21:37;;;;;;;7.15;1.23;;;3.40;99.90;;;;;;5054325;28;20033;-64
2023/01/31 01:24:04;;;;;;;6.78;0.90;;;3.30;99.90;;;;;;5052832;28;20051;-64
2023/01/31 01:26:32;;;;;;;3.22;0.75;;;3.30;99.90;;;;;;5054161;28;20033;-64
2023/01/31 01:29:00;;;;;;;5.15;1.35;;;3.30;99.90;;;;;;5053798;28;20041;-64
2023/01/31 01:31:29;;;;;;;1.73;0.60;;;3.20;99.90;;;;;;5052632;28;20045;-65
2023/01/31 01:34:01;;;;;;;3.33;0.50;;;3.20;99.90;;;;;;5052455;28;20120;-64
2023/01/31 01:36:27;;;;;;;8.52;1.08;;;3.20;99.90;;;;;;5052320;28;20120;-64
2023/01/31 01:38:53;;;;;;;5.00;0.75;;;3.20;99.90;;;;;;5053647;28;20045;-64
2023/01/31 01:41:20;;;;;;;2.40;0.80;;;3.30;99.90;;;;;;5053722;28;20365;-64
2023/01/31 01:43:54;;;;;;;5.63;1.10;;;3.20;99.90;;;;;;5053666;28;20048;-64
2023/01/31 01:46:34;;;;;;;2.80;0.65;;;3.20;99.90;;;;;;5052104;28;20045;-64
2023/01/31 01:49:23;;;;;;;2.05;0.40;;;3.20;99.90;;;;;;5053430;28;20072;-64
2023/01/31 01:51:52;;;;;;;1.92;0.57;;;3.20;99.90;;;;;;5051841;28;20053;-64
2023/01/31 01:54:23;;;;;;;2.85;1.15;;;3.20;99.90;;;;;;5053422;28;20052;-64
2023/01/31 01:56:55;;;;;;;5.07;0.80;;;3.20;99.90;;;;;;5053254;28;20041;-64
2023/01/31 01:59:46;;;;;;;5.07;1.33;;;3.00;99.90;;;;;;5053442;28;20035;-64
2023/01/31 02:02:13;;;;;;;5.28;1.08;;;3.20;99.90;;;;;;5052230;28;20389;-64
2023/01/31 02:04:41;;;;;;;4.65;0.60;;;3.20;99.90;;;;;;5052890;28;20061;-64
2023/01/31 02:07:07;;;;;;;7.53;1.05;;;3.20;99.90;;;;;;5052975;28;20033;-65
2023/01/31 02:09:45;;;;;;;2.47;0.77;;;3.20;99.90;;;;;;5052064;28;20048;-64
2023/01/31 02:12:11;;;;;;;3.42;1.13;;;3.10;99.90;;;;;;5051879;28;20033;-64
2023/01/31 02:14:37;;;;;;;5.90;1.20;;;3.10;99.90;;;;;;5051666;28;20037;-64
2023/01/31 02:17:03;;;;;;;5.55;0.60;;;3.10;99.90;;;;;;5053128;28;20151;-65
2023/01/31 02:19:48;;;;;;;6.60;1.30;;;3.10;99.90;;;;;;5053089;28;20037;-65
2023/01/31 02:22:44;;;;;;;7.68;0.82;;;3.10;99.90;;;;;;5045357;28;20044;-64
2023/01/31 02:25:31;;;;;;;7.25;0.80;;;3.00;99.90;;;;;;5052960;28;20090;-65
2023/01/31 02:28:00;;;;;;;3.00;1.15;;;3.00;99.90;;;;;;5051533;28;20097;-64
2023/01/31 02:31:07;;;;;;;4.63;0.85;;;3.10;99.90;;;;;;5052952;28;20060;-65
2023/01/31 02:33:47;;;;;;;7.38;0.70;;;3.10;99.90;;;;;;5046786;28;20091;-64
2023/01/31 02:36:40;;;;;;;3.40;0.98;;;3.20;99.90;;;;;;5052536;28;20063;-64
2023/01/31 02:39:12;;;;;;;10.35;1.00;;;3.20;99.90;;;;;;5052887;28;20041;-64
2023/01/31 02:41:44;;;;;;;8.93;0.80;;;3.20;99.90;;;;;;5052493;28;20087;-64
2023/01/31 02:47:19;;;;;;;4.72;1.55;;;3.30;99.90;;;;;;5052688;28;20049;-65
2023/01/31 02:50:22;;;;;;;2.95;0.70;;;3.30;99.90;;;;;;5052718;28;20051;-64
2023/01/31 02:53:01;;;;;;;0.70;0.25;;;3.30;99.90;;;;;;5052560;28;20133;-64
2023/01/31 02:58:30;;;;;;;6.35;0.85;;;3.40;99.90;;;;;;5051030;28;20057;-65
2023/01/31 03:00:58;;;;;;;1.52;0.77;;;3.40;99.90;;;;;;5052497;28;20072;-65
2023/01/31 03:03:27;;;;;;;8.48;1.17;;;3.40;99.90;;;;;;5052148;28;20079;-64
2023/01/31 03:06:11;;;;;;;4.53;0.68;;;3.50;99.90;;;;;;5052726;28;20551;-64
2023/01/31 03:08:43;;;;;;;1.90;0.68;;;3.50;99.90;;;;;;5052174;28;20045;-65
2023/01/31 03:11:08;;;;;;;;;;;3.50;99.90;;;;;;5053057;28;20041;-64
2023/01/31 03:14:11;;;;;;;2.47;0.63;;;3.60;99.90;;;;;;5054662;28;19970;-65
2023/01/31 03:19:43;;;;;;;2.92;0.95;;;3.60;99.90;;;;;;5054832;28;20048;-64
2023/01/31 03:22:22;;;;;;;2.17;0.68;;;3.60;99.90;;;;;;5056418;28;20052;-65
2023/01/31 03:24:50;;;;;;;7.38;1.40;;;3.60;99.90;;;;;;5056105;28;20036;-65
2023/01/31 03:27:16;;;;;;;4.07;0.77;;;3.70;99.90;;;;;;5054748;28;20116;-65
2023/01/31 03:29:43;;;;;;;6.22;1.15;;;3.80;99.90;;;;;;5056300;28;20033;-64
2023/01/31 03:32:22;;;;;;;3.05;0.63;;;3.80;99.90;;;;;;5055757;28;20048;-64
2023/01/31 03:34:50;;;;;;;3.97;1.77;;;3.80;99.90;;;;;;5054743;28;20048;-64
2023/01/31 03:37:38;;;;;;;1.35;0.68;;;3.80;99.90;;;;;;5054579;28;20041;-64
2023/01/31 03:40:07;;;;;;;2.70;0.57;;;3.80;99.90;;;;;;5054727;28;20036;-64
2023/01/31 03:42:47;;;;;;;6.20;1.25;;;3.80;99.90;;;;;;5055977;28;20055;-65
2023/01/31 03:45:36;;;;;;;4.53;0.57;;;3.80;99.90;;;;;;5055908;28;20076;-64
2023/01/31 03:48:09;;;;;;;2.95;0.55;;;3.90;99.90;;;;;;5055898;28;20539;-64
2023/01/31 03:50:42;;;;;;;3.70;0.68;;;3.80;99.90;;;;;;5055660;28;20048;-65
2023/01/31 03:53:43;;;;;;;3.80;1.20;;;3.90;99.90;;;;;;5055689;28;20088;-65
2023/01/31 03:56:31;;;;;;;10.57;1.55;;;3.90;99.90;;;;;;5053300;28;20052;-64
2023/01/31 03:59:02;;;;;;;2.22;0.68;;;3.90;99.90;;;;;;5054177;28;20037;-64
2023/01/31 04:01:30;;;;;;;5.07;0.70;;;3.90;99.90;;;;;;5054467;28;20115;-64
2023/01/31 04:04:23;;;;;;;3.80;0.93;;;4.00;99.90;;;;;;5055367;28;20061;-64
2023/01/31 04:06:49;;;;;;;2.83;0.40;;;4.00;99.90;;;;;;5047557;28;20053;-64
2023/01/31 04:09:15;;;;;;;7.85;1.55;;;4.00;99.90;;;;;;5055213;28;20395;-64
2023/01/31 04:11:41;;;;;;;1.90;0.65;;;4.00;99.90;;;;;;5055058;28;20044;-64
2023/01/31 04:14:08;;;;;;;5.35;0.65;;;4.00;99.90;;;;;;5055332;28;20029;-65
2023/01/31 04:16:34;;;;;;;2.78;0.65;;;4.10;99.90;;;;;;5055186;28;20065;-64
2023/01/31 04:18:59;;;;;;;3.83;1.05;;;4.10;99.90;;;;;;5053868;28;20389;-65
2023/01/31 04:21:25;;;;;;;8.95;0.73;;;4.10;99.90;;;;;;5053831;28;20488;-65
2023/01/31 04:23:51;;;;;;;2.50;0.63;;;4.10;99.90;;;;;;5054753;28;20036;-65
2023/01/31 04:26:16;;;;;;;20.65;2.72;;;4.10;99.90;;;;;;5054947;28;20610;-65
2023/01/31 04:28:42;;;;;;;5.13;0.93;;;4.20;99.90;;;;;;5054784;28;20032;-65
2023/01/31 04:31:07;;;;;;;6.28;1.08;;;4.20;99.90;;;;;;5055033;28;20112;-64
2023/01/31 04:33:33;;;;;;;5.03;1.00;;;4.20;99.90;;;;;;5055111;28;20044;-65
2023/01/31 04:35:58;;;;;;;5.20;1.10;;;4.20;99.90;;;;;;5054720;28;20547;-64
2023/01/31 04:38:24;;;;;;;4.20;1.30;;;4.20;99.90;;;;;;5054661;28;20051;-65
2023/01/31 04:40:49;;;;;;;5.03;1.48;;;4.30;99.90;;;;;;5036877;28;20128;-65
2023/01/31 04:43:16;;;;;;;5.20;1.30;;;4.30;99.90;;;;;;5054829;28;20060;-64
2023/01/31 04:45:41;;;;;;;6.57;0.93;;;4.30;99.90;;;;;;5054874;28;20051;-65
2023/01/31 04:48:07;;;;;;;6.28;1.35;;;4.40;99.90;;;;;;5053551;28;20041;-64
2023/01/31 04:50:33;;;;;;;14.77;1.15;;;4.40;99.90;;;;;;5054437;28;20093;-65
2023/01/31 04:52:59;;;;;;;5.30;1.02;;;4.40;99.90;;;;;;5054648;28;20045;-65
2023/01/31 04:55:25;;;;;;;3.72;0.98;;;4.50;99.90;;;;;;5054595;28;20041;-64
2023/01/31 04:57:51;;;;;;;8.95;1.48;;;4.50;99.90;;;;;;5053108;28;20404;-64
2023/01/31 05:00:17;;;;;;;6.80;1.42;;;4.50;99.90;;;;;;5053005;28;20045;-64
2023/01/31 05:02:43;;;;;;;4.25;1.70;;;4.60;99.90;;;;;;5054546;28;20068;-64
2023/01/31 05:05:11;;;;;;;4.80;0.70;;;4.60;99.90;;;;;;5054108;28;20408;-65
2023/01/31 05:07:37;;;;;;;5.57;1.70;;;4.60;99.90;;;;;;5052931;28;20048;-64
2023/01/31 05:10:03;;;;;;;12.43;2.00;;;4.60;99.90;;;;;;5053188;28;20049;-65
2023/01/31 05:12:29;;;;;;;6.70;1.30;;;4.60;99.90;;;;;;5054223;28;20033;-64
2023/01/31 05:14:55;;;;;;;6.40;1.52;;;4.60;99.90;;;;;;5054255;28;20116;-64
2023/01/31 05:17:28;;;;;;;5.82;1.00;;;4.60;99.90;;;;;;5052649;28;20120;-64
2023/01/31 05:19:57;;;;;;;5.60;0.85;;;4.60;99.90;;;;;;5052729;28;20516;-64
2023/01/31 05:22:23;;;;;;;11.93;2.15;;;4.70;99.90;;;;;;5054144;28;20076;-65
2023/01/31 05:24:49;;;;;;;2.72;0.98;;;4.70;99.90;;;;;;5054126;28;20079;-65
2023/01/31 05:27:15;;;;;;;2.70;1.33;;;4.70;99.90;;;;;;5054085;28;20040;-64
2023/01/31 05:29:41;;;;;;;1.95;0.88;;;4.70;99.90;;;;;;5052534;28;20045;-64
2023/01/31 05:32:07;;;;;;;11.60;2.47;;;4.70;99.90;;;;;;5053868;28;20474;-65
2023/01/31 05:34:33;;;;;;;6.40;1.67;;;4.80;99.90;;;;;;5035960;28;20049;-65
2023/01/31 05:37:00;;;;;;;4.43;1.05;;;4.80;99.90;;;;;;5053168;28;20075;-64
2023/01/31 05:39:26;;;;;;;4.32;1.13;;;4.80;99.90;;;;;;5053831;28;20480;-64
2023/01/31 05:41:51;;;;;;;5.95;1.75;;;4.80;99.90;;;;;;5053733;28;20043;-64
2023/01/31 05:44:18;;;;;;;7.95;1.58;;;4.80;99.90;;;;;;5053713;28;20029;-64
2023/01/31 05:46:43;;;;;;;7.35;1.38;;;4.80;99.90;;;;;;5052478;28;20163;-64
2023/01/31 05:49:09;;;;;;;7.28;1.38;;;4.80;99.90;;;;;;5051968;28;20123;-64
2023/01/31 05:51:35;;;;;;;9.98;2.30;;;4.80;99.90;;;;;;5053201;28;20539;-64
2023/01/31 05:54:00;;;;;;;4.07;1.40;;;4.90;99.90;;;;;;5053505;28;20048;-64
2023/01/31 05:56:26;;;;;;;7.05;1.67;;;4.90;99.90;;;;;;5052320;28;20040;-64
2023/01/31 05:58:51;;;;;;;3.90;1.63;;;4.90;99.90;;;;;;5053455;28;20120;-64
2023/01/31 06:01:22;;;;;;;4.90;1.85;;;4.90;99.90;;;;;;5035177;28;20037;-64
2023/01/31 06:03:48;;;;;;;8.90;2.13;;;4.90;99.90;;;;;;5052915;28;20060;-64
2023/01/31 06:06:14;;;;;;;5.80;1.58;;;4.90;99.90;;;;;;5053216;28;20079;-64
2023/01/31 06:08:40;;;;;;;3.25;1.15;;;5.00;99.90;;;;;;5052995;28;20373;-65
2023/01/31 06:11:07;;;;;;;1.98;1.50;;;4.90;99.90;;;;;;5053175;28;20083;-64
2023/01/31 06:13:33;;;;;;;8.38;1.85;;;5.00;99.90;;;;;;5053159;28;20076;-64
2023/01/31 06:15:59;;;;;;;6.38;1.63;;;4.90;99.90;;;;;;5053148;28;20474;-64
2023/01/31 06:18:25;;;;;;;7.70;2.03;;;5.00;99.90;;;;;;5053065;28;20032;-64
2023/01/31 06:20:51;;;;;;;3.85;1.20;;;5.00;99.90;;;;;;5053081;28;20078;-64
2023/01/31 06:23:17;;;;;;;8.18;1.00;;;5.00;99.90;;;;;;5051450;28;20094;-64
2023/01/31 06:25:43;;;;;;;5.25;1.95;;;5.00;99.90;;;;;;5052937;28;20408;-64
2023/01/31 06:28:09;;;;;;;7.60;1.67;;;5.00;99.90;;;;;;5052908;28;20044;-64
2023/01/31 06:30:35;;;;;;;4.97;1.77;;;5.00;99.90;;;;;;5052712;28;20055;-64
2023/01/31 06:33:01;;;;;;;4.57;1.45;;;5.00;99.90;;;;;;5051388;28;20056;-64
2023/01/31 06:35:27;;;;;;;14.73;1.45;;;5.00;99.90;;;;;;5052854;28;20171;-64
2023/01/31 06:37:54;;;;;;;4.88;2.00;;;5.00;99.90;;;;;;5052929;28;20583;-64
2023/01/31 06:40:20;;;;;;;7.72;1.55;;;5.00;99.90;;;;;;5052740;28;20396;-64
2023/01/31 06:42:45;;;;;;;10.07;2.10;;;5.10;99.90;;;;;;5053114;28;20033;-64
2023/01/31 06:45:11;;;;;;;7.50;2.38;;;5.10;99.90;;;;;;5052494;28;20446;-64
2023/01/31 06:47:37;;;;;;;7.07;1.75;;;5.10;99.90;;;;;;5055161;28;20037;-64
2023/01/31 06:50:03;;;;;;;5.57;2.20;;;5.00;99.90;;;;;;5056974;28;20461;-64
2023/01/31 06:52:28;;;;;;;2.65;1.35;;;5.00;99.90;;;;;;5055589;28;20400;-64
2023/01/31 06:54:54;;;;;;;6.75;1.73;;;5.00;99.90;;;;;;5056438;28;20037;-64
2023/01/31 06:57:20;;;;;;;5.47;2.25;;;5.00;99.90;;;;;;5056888;28;20033;-64
2023/01/31 06:59:45;;;;;;;5.63;2.00;;;5.00;99.90;;;;;;5056812;28;20033;-65
2023/01/31 07:02:11;;;;;;;3.25;1.35;;;5.10;99.90;;;;;;5056571;28;20041;-63
2023/01/31 07:04:36;;;;;;;13.30;2.25;;;5.00;99.90;;;;;;5054995;28;20053;-64
2023/01/31 07:07:02;;;;;;;5.72;1.80;;;5.10;99.90;;;;;;5056635;28;20540;-64
2023/01/31 07:09:28;;;;;;;1.50;1.13;;;5.10;99.90;;;;;;5056253;28;20040;-64
2023/01/31 07:11:53;;;;;;;7.93;2.05;;;5.10;99.90;;;;;;5056473;28;20048;-64
2023/01/31 07:14:19;;;;;;;7.32;1.65;;;5.10;99.90;;;;;;5056203;28;20060;-64
2023/01/31 07:16:45;;;;;;;7.65;1.38;;;5.20;99.90;;;;;;5055009;28;20036;-65
2023/01/31 07:19:10;;;;;;;10.50;1.75;;;5.20;99.90;;;;;;5056302;28;20048;-64
2023/01/31 07:21:36;;;;;;;15.52;2.42;;;5.30;99.90;;;;;;5056380;28;20037;-64
2023/01/31 07:24:02;;;;;;;7.13;1.95;;;5.30;99.90;;;;;;5056357;28;20119;-64
2023/01/31 07:26:29;;;;;;;8.85;1.60;;;5.30;99.90;;;;;;5054708;28;20368;-67
2023/01/31 07:28:54;;;;;;;3.72;1.17;;;5.40;99.90;;;;;;5056019;28;20037;-65
2023/01/31 07:31:20;;;;;;;18.63;1.80;;;5.40;99.90;;;;;;5056161;28;20037;-64
2023/01/31 07:33:46;;;;;;;14.68;1.75;;;5.40;99.90;;;;;;5038390;28;20045;-64
2023/01/31 07:36:14;;;;;;;4.53;1.63;;;5.50;99.90;;;;;;5056157;28;20037;-64
2023/01/31 07:38:40;;;;;;;7.75;1.20;;;5.50;99.90;;;;;;5056101;28;20075;-65
2023/01/31 07:41:07;;;;;;;9.30;2.08;;;5.50;99.90;;;;;;5054480;28;20404;-65
2023/01/31 07:43:33;;;;;;;8.80;2.00;;;5.60;99.90;;;;;;5054575;28;20045;-65
2023/01/31 07:45:59;;;;;;;4.15;1.38;;;5.60;99.90;;;;;;5055997;28;20052;-65
2023/01/31 07:48:24;;;;;;;4.53;1.90;;;5.70;99.90;;;;;;5054649;28;20109;-65
2023/01/31 07:50:52;;;;;;;6.88;1.65;;;5.70;99.90;;;;;;5054456;28;20052;-65
2023/01/31 07:53:18;;;;;;;7.35;2.45;;;5.70;99.90;;;;;;5054122;28;20053;-65
2023/01/31 07:55:46;;;;;;;12.05;2.35;;;5.80;99.90;;;;;;5054245;28;20052;-65
2023/01/31 07:58:15;;;;;;;6.88;1.20;;;5.70;99.90;;;;;;5053621;28;20472;-65
2023/01/31 08:03:34;;;;;;;11.70;1.25;;;5.80;99.90;;;;;;5055411;28;20041;-65
2023/01/31 08:06:09;;;;;;;6.72;1.40;;;6.50;99.90;;;;;;5055605;28;20407;-65
2023/01/31 08:08:35;;;;;;;4.55;2.47;;;5.80;99.90;;;;;;5055245;28;20060;-65
2023/01/31 08:11:01;;;;;;;7.55;1.55;;;5.80;99.90;;;;;;5054012;28;20056;-65
2023/01/31 08:13:27;;;;;;;10.43;2.00;;;5.90;99.90;;;;;;5055276;28;20481;-65
2023/01/31 08:15:53;;;;;;;3.50;1.17;;;5.90;99.90;;;;;;5055046;28;20045;-65
2023/01/31 08:18:19;;;;;;;6.63;1.45;;;5.90;99.90;;;;;;5053977;28;20049;-65
2023/01/31 08:20:45;;;;;;;10.93;1.48;;;5.90;99.90;;;;;;5055136;28;20072;-65
2023/01/31 08:23:10;;;;;;;9.40;1.30;;;5.90;99.90;;;;;;5053881;28;20139;-65
2023/01/31 08:25:36;;;;;;;6.20;0.98;;;5.90;99.90;;;;;;5055104;28;20037;-64
2023/01/31 08:28:02;;;;;;;10.15;2.88;;;6.00;99.90;;;;;;5054797;28;20087;-64
2023/01/31 08:30:28;;;;;;;1.08;0.50;;;6.00;99.90;;;;;;5053846;28;20029;-65
2023/01/31 08:32:54;;;;;;;1.92;0.90;;;6.10;99.90;;;;;;5054816;28;20051;-65
2023/01/31 08:35:20;;;;;;;2.75;1.10;;;6.10;99.90;;;;;;5054581;28;20037;-65
2023/01/31 08:37:45;;;;;;;2.38;1.10;;;6.20;99.90;;;;;;5054863;28;20041;-65
2023/01/31 08:40:11;;;;;;;5.40;1.40;;;6.20;99.90;;;;;;5054502;28;20483;-65
2023/01/31 08:42:38;;;;;;;2.83;1.17;;;6.20;99.90;;;;;;5054423;28;20047;-65
2023/01/31 08:45:05;;;;;;;4.13;1.27;;;6.20;99.90;;;;;;5054866;28;20463;-65
2023/01/31 08:47:32;;;;;;;1.98;1.05;;;6.30;99.90;;;;;;5054443;28;20063;-64
2023/01/31 08:49:57;;;;;;;1.60;1.20;;;6.30;99.90;;;;;;5054727;28;20049;-65
2023/01/31 08:52:23;;;;;;;7.85;1.48;;;6.30;99.90;;;;;;5054579;28;20590;-65
2023/01/31 08:54:49;;;;;;;2.78;0.63;;;6.30;99.90;;;;;;5053181;28;20044;-65
2023/01/31 08:57:14;;;;;;;2.63;1.02;;;6.30;99.90;;;;;;5054574;28;20115;-65
2023/01/31 08:59:40;;;;;;;6.35;1.30;;;6.30;99.90;;;;;;5054515;28;20060;-65
2023/01/31 09:02:06;;;;;;;5.35;0.75;;;6.30;99.90;;;;;;5054456;28;20092;-64
2023/01/31 09:04:31;;;;;;;4.07;1.40;;;6.30;99.90;;;;;;5052822;28;20535;-65
2023/01/31 09:06:57;;;;;;;15.05;2.15;;;6.30;99.90;;;;;;5053212;28;20123;-65
2023/01/31 09:09:24;;;;;;;2.63;0.88;;;6.40;99.90;;;;;;5054384;28;20128;-65
2023/01/31 09:11:50;;;;;;;4.63;1.30;;;6.40;99.90;;;;;;5052782;28;20053;-64
2023/01/31 09:14:16;;;;;;;3.10;1.20;;;6.30;99.90;;;;;;5054131;28;20506;-65
2023/01/31 09:16:41;;;;;;;4.60;0.93;;;6.40;99.90;;;;;;5053965;28;20036;-65
2023/01/31 09:19:07;;;;;;;5.30;1.50;;;6.40;99.90;;;;;;5054143;28;20029;-65
2023/01/31 09:21:32;;;;;;;5.03;0.90;;;6.50;99.90;;;;;;5054169;28;20120;-65
2023/01/31 09:24:01;;;;;;;11.55;1.52;;;6.40;99.90;;;;;;5053710;28;20110;-65
2023/01/31 09:26:27;;;;;;;7.60;1.52;;;6.50;99.90;;;;;;5052740;28;20067;-67
2023/01/31 09:28:53;;;;;;;3.75;1.63;;;6.50;99.90;;;;;;5053875;28;20041;-65
2023/01/31 09:31:19;;;;;;;7.72;1.15;;;6.60;99.90;;;;;;5052331;28;20432;-65
2023/01/31 09:33:45;;;;;;;7.57;1.15;;;6.60;99.90;;;;;;5052153;28;20051;-65
2023/01/31 09:36:14;;;;;;;2.95;0.82;;;6.70;99.90;;;;;;5052387;28;20043;-65
2023/01/31 09:38:40;;;;;;;8.20;2.58;;;6.70;99.90;;;;;;5053783;28;20040;-65
2023/01/31 09:41:16;;;;;;;6.25;1.35;;;6.70;99.90;;;;;;5052496;28;20049;-65
2023/01/31 09:43:52;;;;;;;7.85;1.50;;;6.70;99.90;;;;;;5053631;28;20381;-65
2023/01/31 09:46:21;;;;;;;7.45;2.28;;;6.80;99.90;;;;;;5052319;28;20496;-65
2023/01/31 09:48:50;;;;;;;5.93;1.08;;;6.80;99.90;;;;;;5053504;28;20044;-66
2023/01/31 09:51:17;;;;;;;7.00;1.20;;;6.90;99.90;;;;;;5053304;28;20047;-66
2023/01/31 09:53:44;;;;;;;2.88;1.25;;;7.70;99.90;;;;;;5053372;28;20385;-66
2023/01/31 09:56:21;;;;;;;3.97;1.60;;;6.90;99.90;;;;;;5052335;28;20029;-65
2023/01/31 09:58:56;;;;;;;7.13;1.70;;;6.90;99.90;;;;;;5053465;28;20108;-65
2023/01/31 10:02:04;;;;;;;2.17;1.23;;;6.90;99.90;;;;;;5053430;28;20063;-65
2023/01/31 10:05:04;;;;;;;7.72;1.38;;;6.90;99.90;;;;;;5053100;28;20498;-65
2023/01/31 10:07:37;;;;;;;3.20;1.10;;;6.90;99.90;;;;;;5037115;28;20041;-65
2023/01/31 10:10:12;;;;;;;5.43;1.38;;;6.90;99.90;;;;;;5051751;28;20037;-65
2023/01/31 10:12:40;;;;;;;6.80;1.35;;;6.90;99.90;;;;;;5052759;28;20174;-65
2023/01/31 10:15:21;;;;;;;6.05;1.40;;;7.00;99.90;;;;;;5053179;28;20065;-66
2023/01/31 10:17:53;;;;;;;8.90;1.42;;;6.90;99.90;;;;;;5053202;28;20043;-65
2023/01/31 10:20:41;;;;;;;3.50;0.75;;;6.90;99.90;;;;;;5051570;28;20036;-65
2023/01/31 10:23:11;;;;;;;6.22;1.10;;;6.90;99.90;;;;;;5041006;28;20064;-65
2023/01/31 10:26:07;;;;;;;1.63;0.63;;;7.00;99.90;;;;;;5053138;28;20029;-65
2023/01/31 10:28:46;;;;;;;8.90;0.93;;;7.00;99.90;;;;;;5052644;28;20041;-65
2023/01/31 10:31:22;;;;;;;4.03;1.70;;;7.50;99.90;;;;;;5051742;28;20049;-65
2023/01/31 10:33:54;;;;;;;5.05;1.08;;;;;;;;;;5052851;28;20396;-65
2023/01/31 10:36:28;;;;;;;6.40;1.25;;;7.00;99.90;;;;;;5034698;28;20044;-65
2023/01/31 10:39:23;;;;;;;8.07;1.20;;;7.00;99.90;;;;;;5051286;28;20048;-65
2023/01/31 10:41:55;;;;;;;6.40;1.73;;;7.10;99.90;;;;;;5048557;28;20095;-66
2023/01/31 10:44:47;;;;;;;8.00;1.23;;;7.10;99.90;;;;;;5051480;28;20067;-66
2023/01/31 10:47:16;;;;;;;5.28;1.58;;;7.00;99.90;;;;;;5044964;28;20219;-66
2023/01/31 10:49:45;;;;;;;4.93;1.02;;;7.00;99.90;;;;;;5051437;28;20048;-63
2023/01/31 10:52:37;;;;;;;4.25;1.60;;;6.90;99.90;;;;;;5052601;28;20041;-63
2023/01/31 10:55:24;;;;;;;7.93;1.75;;;6.90;99.90;;;;;;5051153;28;20432;-63
2023/01/31 10:57:50;;;;;;;6.68;1.70;;;6.90;99.90;;;;;;5052786;28;20041;-63
2023/01/31 11:00:29;;;;;;;8.88;1.52;;;6.90;99.90;;;;;;5052687;28;20084;-64
2023/01/31 11:02:56;;;;;;;3.97;1.05;;;6.90;99.90;;;;;;5051328;28;20124;-63
2023/01/31 11:05:25;;;;;;;4.35;1.40;;;6.80;99.90;;;;;;5052117;28;20056;-64
2023/01/31 11:07:50;;;;;;;3.03;1.10;;;6.80;99.90;;;;;;5052575;28;20068;-63
2023/01/31 11:10:28;;;;;;;3.10;1.48;;;6.80;99.90;;;;;;5052259;28;20069;-65
2023/01/31 11:12:55;;;;;;;2.33;1.20;;;7.20;99.90;;;;;;5051060;28;20041;-64
2023/01/31 11:15:25;;;;;;;9.35;1.73;;;6.80;99.90;;;;;;5052313;28;20048;-64
2023/01/31 11:17:52;;;;;;;8.30;1.80;;;6.80;99.90;;;;;;5052203;28;20048;-64
2023/01/31 11:20:27;;;;;;;3.75;1.73;;;6.80;99.90;;;;;;5052196;28;20037;-64
2023/01/31 11:22:54;;;;;;;5.50;1.25;;;6.80;99.90;;;;;;5051158;28;20510;-64
2023/01/31 11:25:22;;;;;;;5.65;1.30;;;6.80;99.90;;;;;;5052367;28;20045;-64
2023/01/31 11:27:51;;;;;;;4.70;1.60;;;6.80;99.90;;;;;;5051023;28;20106;-66
2023/01/31 11:30:30;;;;;;;5.93;1.40;;;6.80;99.90;;;;;;5051993;28;20043;-64
2023/01/31 11:32:56;;;;;;;7.05;1.10;;;6.80;99.90;;;;;;5034131;28;20056;-65
2023/01/31 11:35:27;;;;;;;1.35;1.02;;;6.80;99.90;;;;;;5054093;28;20033;-64
2023/01/31 11:37:57;;;;;;;;;;;6.80;99.90;;;;;;5056570;28;20396;-64
2023/01/31 11:40:33;;;;;;;3.33;0.85;;;6.80;99.90;;;;;;5054599;28;19921;-65
2023/01/31 11:43:12;;;;;;;4.95;1.00;;;6.90;99.90;;;;;;5054724;28;20052;-65
2023/01/31 11:45:43;;;;;;;2.78;1.02;;;6.80;99.90;;;;;;5054363;28;20045;-64
2023/01/31 11:48:18;;;;;;;5.35;1.00;;;6.90;99.90;;;;;;5055949;28;20075;-65
2023/01/31 11:50:50;;;;;;;1.73;0.80;;;6.90;99.90;;;;;;5055908;28;20045;-65
2023/01/31 11:53:25;;;;;;;3.55;1.00;;;6.90;99.90;;;;;;5055732;28;20045;-64
2023/01/31 11:55:53;;;;;;;1.95;0.77;;;6.90;99.90;;;;;;5055676;28;20091;-64
2023/01/31 11:58:25;;;;;;;5.40;1.75;;;6.90;99.90;;;;;;5055629;28;20480;-65
2023/01/31 12:00:52;;;;;;;8.02;1.40;;;7.30;99.90;;;;;;5054369;28;20043;-64
2023/01/31 12:03:18;;;;;;;6.68;1.45;;;6.90;99.90;;;;;;5055182;28;20047;-65
2023/01/31 12:05:48;;;;;;;1.73;1.02;;;6.90;99.90;;;;;;5055227;28;20049;-65
2023/01/31 12:08:37;;;;;;;4.53;1.33;;;6.90;99.90;;;;;;5055518;28;20164;-65
2023/01/31 12:11:05;;;;;;;2.83;1.23;;;6.90;99.90;;;;;;5055053;28;20041;-64
2023/01/31 12:13:43;;;;;;;1.92;0.73;;;6.90;99.90;;;;;;5055300;28;20087;-65
2023/01/31 12:16:10;;;;;;;12.35;1.38;;;6.90;99.90;;;;;;5037465;28;20115;-64
2023/01/31 12:18:59;;;;;;;3.53;1.00;;;7.00;99.90;;;;;;5054034;28;20044;-64
2023/01/31 12:21:26;;;;;;;11.40;1.80;;;7.00;99.90;;;;;;5055011;28;20049;-64
2023/01/31 12:24:00;;;;;;;7.95;1.48;;;7.10;99.90;;;;;;5054940;28;20137;-64
2023/01/31 12:26:26;;;;;;;2.78;1.00;;;7.20;99.90;;;;;;5054921;28;20040;-64
2023/01/31 12:29:32;;;;;;;7.05;1.38;;;7.30;99.90;;;;;;5037097;28;20552;-64
2023/01/31 12:32:37;;;;;;;4.57;1.23;;;7.30;99.90;;;;;;5054645;28;20033;-64
2023/01/31 12:35:22;;;;;;;7.63;1.00;;;7.40;99.90;;;;;;5053568;28;20048;-64
2023/01/31 12:37:57;;;;;;;6.70;1.48;;;7.50;99.90;;;;;;5055090;28;20029;-65
2023/01/31 12:40:58;;;;;;;5.70;1.17;;;7.50;99.90;;;;;;5053415;28;20048;-64
2023/01/31 12:43:48;;;;;;;9.48;1.23;;;7.60;99.90;;;;;;5031739;28;20103;-64
2023/01/31 12:46:37;;;;;;;2.17;0.73;;;7.70;99.90;;;;;;5054446;28;20377;-64
2023/01/31 12:49:50;;;;;;;5.32;1.70;;;7.80;99.90;;;;;;5045299;28;20057;-64
2023/01/31 12:52:44;;;;;;;5.50;1.02;;;7.90;99.90;;;;;;5045108;28;20060;-64
2023/01/31 12:55:26;;;;;;;7.20;2.95;;;7.90;99.90;;;;;;5054547;28;20029;-65
2023/01/31 12:58:16;;;;;;;3.50;1.02;;;7.90;99.90;;;;;;5054352;28;20037;-64
2023/01/31 13:00:50;;;;;;;5.07;0.80;;;8.00;99.90;;;;;;5054584;28;20037;-64
2023/01/31 13:03:36;;;;;;;6.32;1.50;;;8.00;99.90;;;;;;5054304;28;20426;-64
2023/01/31 13:06:08;;;;;;;8.32;1.05;;;8.10;99.90;;;;;;5053093;28;20128;-64
2023/01/31 13:08:36;;;;;;;1.95;0.93;;;8.10;99.90;;;;;;5054341;28;20088;-64
2023/01/31 13:11:08;;;;;;;5.72;1.60;;;8.20;99.90;;;;;;5053160;28;20049;-64
2023/01/31 13:13:45;;;;;;;6.38;1.38;;;8.30;99.90;;;;;;5054229;28;20099;-64
2023/01/31 13:16:19;;;;;;;3.00;1.15;;;8.40;99.90;;;;;;5054277;28;20552;-64
2023/01/31 13:18:48;;;;;;;2.45;0.93;;;8.40;99.90;;;;;;5052673;28;20036;-64
2023/01/31 13:21:17;;;;;;;5.93;1.52;;;8.40;99.90;;;;;;5053871;28;20056;-64
2023/01/31 13:23:48;;;;;;;3.88;1.10;;;8.40;99.90;;;;;;5054043;28;20045;-65
2023/01/31 13:26:33;;;;;;;5.90;1.48;;;8.40;99.90;;;;;;5052478;28;20052;-64
2023/01/31 13:29:08;;;;;;;6.00;1.05;;;8.40;99.90;;;;;;5053721;28;20091;-64